Time;durP1;ratioP1;P1;durP2;ratioP2;P2;SDS_P1;SDS_P2;PMS_P1;PMS_P2;Temp;Humidity;BMP_temperature;BMP_pressure;BME280_temperature;BME280_humidity;BME280_pressure;Samples;Min_cycle;Max_cycle;Signal;HPM_P1;HPM_P2
2020/12/30 00:01:23;;;;;;;20.00;8.93;;;;;;;;;;12907185;23;20198;-59
2020/12/30 00:06:25;;;;;;;14.63;7.47;;;;;;;;;;12884098;23;20286;-59
2020/12/30 00:11:27;;;;;;;11.47;6.10;;;;;;;;;;12885407;23;20202;-59
2020/12/30 00:16:29;;;;;;;11.00;5.20;;;;;;;;;;12884483;23;20640;-59
2020/12/30 00:21:31;;;;;;;9.23;4.57;;;;;;;;;;12881475;23;20202;-59
2020/12/30 00:26:33;;;;;;;10.03;4.90;;;;;;;;;;12889421;23;20186;-59
2020/12/30 00:31:34;;;;;;;8.30;4.13;;;;;;;;;;12887230;23;20185;-58
2020/12/30 00:36:38;;;;;;;9.40;4.37;;;;;;;;;;12887233;23;21037;-59
2020/12/30 00:41:39;;;;;;;10.03;5.23;;;;;;;;;;12892394;23;20210;-59
2020/12/30 00:46:41;;;;;;;10.67;5.27;;;;;;;;;;12885817;23;20182;-59
2020/12/30 00:51:47;;;;;;;8.70;4.83;;;;;;;;;;12886640;23;20472;-59
2020/12/30 00:56:49;;;;;;;11.20;5.27;;;;;;;;;;12884788;23;20181;-59
2020/12/30 01:26:03;;;;;;;13.70;6.20;;;;;;;;;;12873539;23;20187;-59
2020/12/30 01:31:04;;;;;;;13.17;6.90;;;;;;;;;;12887215;23;20194;-59
2020/12/30 01:36:06;;;;;;;14.53;6.97;;;;;;;;;;12882873;23;20218;-59
2020/12/30 01:41:09;;;;;;;17.67;7.97;;;;;;;;;;12885449;23;20198;-60
2020/12/30 01:46:11;;;;;;;16.10;7.80;;;;;;;;;;12883703;23;20175;-60
2020/12/30 01:51:13;;;;;;;16.33;8.30;;;;;;;;;;12885573;23;20551;-59
2020/12/30 01:56:16;;;;;;;23.03;9.77;;;;;;;;;;12884856;22;20458;-59
2020/12/30 02:01:20;;;;;;;19.87;9.80;;;;;;;;;;12885757;23;20211;-59
2020/12/30 02:06:21;;;;;;;22.87;9.53;;;;;;;;;;12879781;23;20735;-59
2020/12/30 02:11:25;;;;;;;17.37;9.20;;;;;;;;;;12885792;23;20175;-59
2020/12/30 02:16:27;;;;;;;21.67;10.07;;;;;;;;;;12883440;23;20175;-59
2020/12/30 02:21:30;;;;;;;23.30;10.80;;;;;;;;;;12883662;23;20233;-59
2020/12/30 02:26:32;;;;;;;21.57;10.30;;;;;;;;;;12883500;23;20572;-59
2020/12/30 02:31:34;;;;;;;28.83;11.47;;;;;;;;;;12890228;23;20536;-59
2020/12/30 02:36:36;;;;;;;23.33;10.53;;;;;;;;;;12888854;23;20182;-59
2020/12/30 02:41:38;;;;;;;25.17;11.87;;;;;;;;;;12889740;23;20217;-59
2020/12/30 02:46:40;;;;;;;24.33;11.73;;;;;;;;;;12890297;23;20182;-59
2020/12/30 02:51:42;;;;;;;25.17;12.03;;;;;;;;;;12890569;23;20186;-58
2020/12/30 02:56:44;;;;;;;24.63;10.83;;;;;;;;;;12889592;23;20190;-59
2020/12/30 03:01:46;;;;;;;25.47;11.03;;;;;;;;;;12887786;23;20226;-59
2020/12/30 03:06:49;;;;;;;22.87;10.90;;;;;;;;;;12887955;23;20254;-58
2020/12/30 03:11:51;;;;;;;26.63;11.23;;;;;;;;;;12886913;23;20179;-60
2020/12/30 03:16:53;;;;;;;22.17;10.73;;;;;;;;;;12888872;23;20646;-59
2020/12/30 03:21:56;;;;;;;24.73;10.83;;;;;;;;;;12885649;23;20213;-58
2020/12/30 03:26:58;;;;;;;23.70;10.30;;;;;;;;;;12888526;23;20207;-58
2020/12/30 03:32:00;;;;;;;21.63;10.60;;;;;;;;;;12888244;23;20186;-58
2020/12/30 03:37:01;;;;;;;20.17;9.90;;;;;;;;;;12887432;23;20187;-58
2020/12/30 03:42:06;;;;;;;24.43;10.23;;;;;;;;;;12887553;23;20213;-58
2020/12/30 03:47:08;;;;;;;22.90;10.07;;;;;;;;;;12889373;23;20178;-58
2020/12/30 03:52:10;;;;;;;23.00;10.43;;;;;;;;;;12884075;23;20171;-58
2020/12/30 03:57:13;;;;;;;21.30;9.73;;;;;;;;;;12888586;23;20177;-59
2020/12/30 04:02:14;;;;;;;19.30;9.43;;;;;;;;;;12885047;23;20207;-59
2020/12/30 04:07:16;;;;;;;21.00;9.50;;;;;;;;;;12886589;23;20186;-58
2020/12/30 04:12:18;;;;;;;21.60;9.13;;;;;;;;;;12886289;23;20560;-59
2020/12/30 04:17:20;;;;;;;19.37;8.87;;;;;;;;;;12888548;23;20179;-59
2020/12/30 04:22:21;;;;;;;18.47;8.30;;;;;;;;;;12884325;23;20249;-59
2020/12/30 04:27:24;;;;;;;12.93;6.43;;;;;;;;;;12887877;23;20199;-59
2020/12/30 04:32:26;;;;;;;10.50;5.73;;;;;;;;;;12884040;23;20650;-59
2020/12/30 04:37:27;;;;;;;10.77;4.80;;;;;;;;;;12886503;23;20179;-59
2020/12/30 04:42:33;;;;;;;13.17;4.90;;;;;;;;;;12885254;23;20217;-59
2020/12/30 04:47:35;;;;;;;7.97;4.20;;;;;;;;;;12887656;23;20202;-59
2020/12/30 04:52:37;;;;;;;7.10;3.70;;;;;;;;;;12884614;23;20188;-59
2020/12/30 04:57:57;;;;;;;7.40;3.50;;;;;;;;;;12888358;23;20186;-60
2020/12/30 05:03:00;;;;;;;7.63;3.63;;;;;;;;;;12886698;23;20461;-59
2020/12/30 05:08:03;;;;;;;8.47;3.43;;;;;;;;;;12882204;23;20209;-59
2020/12/30 05:13:06;;;;;;;7.77;3.47;;;;;;;;;;12887160;23;20179;-59
2020/12/30 05:18:08;;;;;;;6.67;3.80;;;;;;;;;;12884301;23;20904;-59
2020/12/30 05:23:11;;;;;;;6.97;3.30;;;;;;;;;;12883448;23;20904;-59
2020/12/30 05:28:14;;;;;;;5.73;2.93;;;;;;;;;;12883802;23;20202;-59
2020/12/30 05:33:16;;;;;;;5.47;3.27;;;;;;;;;;12884442;23;20175;-59
2020/12/30 05:38:26;;;;;;;5.70;3.37;;;;;;;;;;12887029;23;20186;-59
2020/12/30 05:43:29;;;;;;;7.13;3.43;;;;;;;;;;12889552;23;20214;-59
2020/12/30 05:48:34;;;;;;;9.73;3.50;;;;;;;;;;12883246;23;20185;-59
2020/12/30 05:53:36;;;;;;;8.57;3.80;;;;;;;;;;12885295;23;20174;-59
2020/12/30 05:58:41;;;;;;;8.40;3.50;;;;;;;;;;12883054;23;20663;-59
2020/12/30 06:03:43;;;;;;;6.27;3.27;;;;;;;;;;12885820;23;20217;-59
2020/12/30 06:08:45;;;;;;;8.23;3.50;;;;;;;;;;12880435;23;20642;-59
2020/12/30 06:13:51;;;;;;;9.27;3.87;;;;;;;;;;12886381;23;20649;-59
2020/12/30 06:18:56;;;;;;;7.80;4.17;;;;;;;;;;12883645;23;20167;-59
2020/12/30 06:24:00;;;;;;;7.80;3.83;;;;;;;;;;12885536;23;20206;-59
2020/12/30 06:29:09;;;;;;;9.60;4.33;;;;;;;;;;12883984;23;20226;-58
2020/12/30 06:34:11;;;;;;;8.97;4.00;;;;;;;;;;12885101;23;20175;-59
2020/12/30 06:39:20;;;;;;;8.70;3.87;;;;;;;;;;12886475;23;20174;-59
2020/12/30 06:44:35;;;;;;;10.13;3.80;;;;;;;;;;12882826;23;20206;-59
2020/12/30 06:49:37;;;;;;;16.13;4.87;;;;;;;;;;12884924;23;20206;-58
2020/12/30 06:54:45;;;;;;;6.63;3.77;;;;;;;;;;12882105;23;20179;-59
2020/12/30 06:59:48;;;;;;;9.73;4.00;;;;;;;;;;12886011;23;20669;-59
2020/12/30 07:04:59;;;;;;;14.00;4.30;;;;;;;;;;12881109;23;20207;-59
2020/12/30 07:10:00;;;;;;;8.87;4.10;;;;;;;;;;12886059;23;20175;-59
2020/12/30 07:15:04;;;;;;;8.40;4.70;;;;;;;;;;12883150;23;20179;-59
2020/12/30 07:20:20;;;;;;;10.67;5.27;;;;;;;;;;12887561;23;20179;-60
2020/12/30 07:25:21;;;;;;;11.93;5.87;;;;;;;;;;12884946;23;20581;-59
2020/12/30 07:30:24;;;;;;;13.23;5.80;;;;;;;;;;12888283;23;20203;-59
2020/12/30 07:35:26;;;;;;;13.03;6.37;;;;;;;;;;12884995;23;20197;-58
2020/12/30 07:40:27;;;;;;;12.83;6.23;;;;;;;;;;12886941;23;20175;-58
2020/12/30 07:45:30;;;;;;;13.67;6.57;;;;;;;;;;12884660;23;20207;-58
2020/12/30 07:50:31;;;;;;;12.13;6.53;;;;;;;;;;12885393;23;20186;-57
2020/12/30 07:55:34;;;;;;;16.20;7.93;;;;;;;;;;12872179;23;20182;-57
2020/12/30 08:00:37;;;;;;;16.53;8.10;;;;;;;;;;12886736;23;20178;-58
2020/12/30 08:05:44;;;;;;;16.00;7.70;;;;;;;;;;12888647;23;20206;-56
2020/12/30 08:10:48;;;;;;;19.73;7.90;;;;;;;;;;12879835;23;20191;-58
2020/12/30 08:15:51;;;;;;;16.93;7.93;;;;;;;;;;12882008;23;20571;-59
2020/12/30 08:20:53;;;;;;;15.53;6.27;;;;;;;;;;12883945;23;20681;-59
2020/12/30 08:25:55;;;;;;;16.03;6.10;;;;;;;;;;12881143;23;20211;-57
2020/12/30 08:30:59;;;;;;;9.77;4.80;;;;;;;;;;12882774;23;20200;-57
2020/12/30 08:36:09;;;;;;;14.33;4.63;;;;;;;;;;12870806;22;20175;-58
2020/12/30 08:41:13;;;;;;;8.47;4.53;;;;;;;;;;12882714;23;20180;-58
2020/12/30 08:46:20;;;;;;;7.07;4.20;;;;;;;;;;12881793;23;20206;-55
2020/12/30 08:51:25;;;;;;;7.03;4.23;;;;;;;;;;12884462;23;20189;-57
2020/12/30 08:56:27;;;;;;;10.93;4.60;;;;;;;;;;12884311;23;20218;-58
2020/12/30 09:01:30;;;;;;;9.17;3.77;;;;;;;;;;12883611;23;20193;-58
2020/12/30 09:06:31;;;;;;;8.23;4.10;;;;;;;;;;12885361;23;20175;-58
2020/12/30 09:11:33;;;;;;;10.33;3.90;;;;;;;;;;12883764;23;20179;-57
2020/12/30 09:16:50;;;;;;;9.67;3.50;;;;;;;;;;12882426;23;20176;-57
2020/12/30 09:21:51;;;;;;;6.97;3.10;;;;;;;;;;12880778;23;20746;-58
2020/12/30 09:26:53;;;;;;;6.60;3.23;;;;;;;;;;12885425;23;20207;-57
2020/12/30 09:31:56;;;;;;;7.00;3.60;;;;;;;;;;12883457;23;20175;-57
2020/12/30 09:36:58;;;;;;;6.50;3.37;;;;;;;;;;12882812;23;20229;-58
2020/12/30 09:42:00;;;;;;;7.80;4.07;;;;;;;;;;12882466;23;20230;-59
2020/12/30 09:47:03;;;;;;;8.63;4.17;;;;;;;;;;12883230;23;20186;-56
2020/12/30 09:52:05;;;;;;;9.13;4.90;;;;;;;;;;12879474;23;20592;-58
2020/12/30 09:57:07;;;;;;;9.73;5.03;;;;;;;;;;12883972;23;20187;-57
2020/12/30 10:02:10;;;;;;;13.77;6.10;;;;;;;;;;12883823;23;20206;-57
2020/12/30 10:07:12;;;;;;;18.60;7.77;;;;;;;;;;12880405;23;20214;-58
2020/12/30 10:12:14;;;;;;;17.83;8.17;;;;;;;;;;12881688;23;20182;-58
2020/12/30 10:17:16;;;;;;;21.10;8.33;;;;;;;;;;12885267;23;20182;-56
2020/12/30 10:22:18;;;;;;;17.27;8.50;;;;;;;;;;12879412;22;20199;-58
2020/12/30 10:27:19;;;;;;;16.17;8.17;;;;;;;;;;12883782;23;20213;-58
2020/12/30 10:32:22;;;;;;;14.67;7.50;;;;;;;;;;12881290;23;20175;-58
2020/12/30 10:37:24;;;;;;;12.70;6.50;;;;;;;;;;12882908;23;20182;-58
2020/12/30 10:42:25;;;;;;;15.00;6.03;;;;;;;;;;12882695;23;20206;-58
2020/12/30 10:47:28;;;;;;;10.87;4.63;;;;;;;;;;12883772;23;20499;-56
2020/12/30 10:52:30;;;;;;;13.57;5.10;;;;;;;;;;12884484;23;20507;-57
2020/12/30 10:57:32;;;;;;;7.93;3.47;;;;;;;;;;12889000;23;20175;-57
2020/12/30 11:02:34;;;;;;;6.80;3.73;;;;;;;;;;12885790;23;20209;-58
2020/12/30 11:07:36;;;;;;;10.07;3.30;;;;;;;;;;12886761;23;20648;-58
2020/12/30 11:12:38;;;;;;;7.57;3.30;;;;;;;;;;12887856;23;20179;-58
2020/12/30 11:17:40;;;;;;;5.83;2.83;;;;;;;;;;12889389;23;20179;-60
2020/12/30 11:22:42;;;;;;;5.67;2.60;;;;;;;;;;12884654;23;20676;-58
2020/12/30 11:27:44;;;;;;;6.67;2.50;;;;;;;;;;12889260;23;20207;-58
2020/12/30 11:32:46;;;;;;;4.77;2.20;;;;;;;;;;12885923;23;20174;-58
2020/12/30 11:37:48;;;;;;;3.13;1.73;;;;;;;;;;12885621;23;20675;-58
2020/12/30 11:42:50;;;;;;;4.27;1.70;;;;;;;;;;12885250;23;20214;-57
2020/12/30 11:47:54;;;;;;;5.23;2.30;;;;;;;;;;12871686;23;20650;-59
2020/12/30 11:52:56;;;;;;;5.70;1.73;;;;;;;;;;12887929;23;20175;-59
2020/12/30 11:57:57;;;;;;;5.03;1.90;;;;;;;;;;12884711;23;20179;-58
2020/12/30 12:03:00;;;;;;;7.30;1.70;;;;;;;;;;12886091;23;20217;-56
2020/12/30 12:08:02;;;;;;;5.20;1.90;;;;;;;;;;12883888;23;20175;-58
2020/12/30 12:13:03;;;;;;;5.97;1.60;;;;;;;;;;12885084;23;20510;-58
2020/12/30 12:18:06;;;;;;;9.07;1.90;;;;;;;;;;12883435;23;20179;-58
2020/12/30 12:23:08;;;;;;;6.33;1.90;;;;;;;;;;12885914;23;20206;-58
2020/12/30 12:28:09;;;;;;;5.07;1.90;;;;;;;;;;12884920;23;20213;-58
2020/12/30 12:33:12;;;;;;;6.93;2.27;;;;;;;;;;12885712;23;20175;-58
2020/12/30 12:38:14;;;;;;;8.23;2.63;;;;;;;;;;12881451;23;21024;-57
2020/12/30 12:43:16;;;;;;;10.83;2.13;;;;;;;;;;12886337;23;20211;-58
2020/12/30 12:48:18;;;;;;;5.13;2.50;;;;;;;;;;12882051;23;20182;-55
2020/12/30 12:53:20;;;;;;;8.17;2.40;;;;;;;;;;12882518;23;20174;-58
2020/12/30 12:58:21;;;;;;;9.70;2.60;;;;;;;;;;12886830;23;20210;-59
2020/12/30 13:03:24;;;;;;;9.00;2.73;;;;;;;;;;12883049;23;20534;-58
2020/12/30 13:08:26;;;;;;;10.97;2.77;;;;;;;;;;12884409;23;20179;-58
2020/12/30 13:13:28;;;;;;;4.97;2.30;;;;;;;;;;12882901;23;20387;-58
2020/12/30 13:18:30;;;;;;;5.00;2.20;;;;;;;;;;12883341;23;20640;-59
2020/12/30 13:23:32;;;;;;;4.93;1.70;;;;;;;;;;12880798;23;20213;-58
2020/12/30 13:28:37;;;;;;;7.20;1.63;;;;;;;;;;12883405;23;20806;-57
2020/12/30 13:33:40;;;;;;;5.47;1.50;;;;;;;;;;12879856;23;20175;-58
2020/12/30 13:38:41;;;;;;;4.40;1.50;;;;;;;;;;12874132;23;20178;-58
2020/12/30 13:43:43;;;;;;;4.63;1.50;;;;;;;;;;12874663;23;20267;-57
2020/12/30 13:48:46;;;;;;;5.90;2.07;;;;;;;;;;12882452;23;21018;-58
2020/12/30 13:53:49;;;;;;;3.23;1.50;;;;;;;;;;12878504;23;20199;-59
2020/12/30 13:58:50;;;;;;;2.10;1.60;;;;;;;;;;12883334;23;20523;-58
2020/12/30 14:03:53;;;;;;;6.90;1.73;;;;;;;;;;12878931;23;20217;-58
2020/12/30 14:08:59;;;;;;;7.13;1.83;;;;;;;;;;12903368;23;20231;-57
2020/12/30 14:14:00;;;;;;;7.80;2.00;;;;;;;;;;12882488;23;20175;-57
2020/12/30 14:19:03;;;;;;;3.63;2.30;;;;;;;;;;12880671;23;20605;-57
2020/12/30 14:24:05;;;;;;;7.57;2.40;;;;;;;;;;12884735;23;20206;-58
2020/12/30 14:29:07;;;;;;;8.33;2.40;;;;;;;;;;12884782;23;20214;-57
2020/12/30 14:34:09;;;;;;;6.93;2.53;;;;;;;;;;12888177;23;20183;-57
2020/12/30 14:39:11;;;;;;;4.70;2.53;;;;;;;;;;12882569;23;20182;-57
2020/12/30 14:44:12;;;;;;;5.80;2.90;;;;;;;;;;12887225;23;20213;-56
2020/12/30 14:49:15;;;;;;;7.47;3.40;;;;;;;;;;12884609;23;20435;-58
2020/12/30 14:54:17;;;;;;;7.97;2.93;;;;;;;;;;12886219;23;20640;-58
2020/12/30 14:59:18;;;;;;;9.37;3.00;;;;;;;;;;12884993;23;20175;-57
2020/12/30 15:04:21;;;;;;;9.27;2.87;;;;;;;;;;12886966;23;20211;-58
2020/12/30 15:09:23;;;;;;;13.77;2.93;;;;;;;;;;12883860;23;20179;-58
2020/12/30 15:14:24;;;;;;;10.93;2.70;;;;;;;;;;12889399;23;20171;-56
2020/12/30 15:19:27;;;;;;;7.80;2.50;;;;;;;;;;12888709;23;20181;-57
2020/12/30 15:24:28;;;;;;;8.63;2.70;;;;;;;;;;12888088;23;20213;-58
2020/12/30 15:29:30;;;;;;;7.60;2.90;;;;;;;;;;12885405;23;20198;-56
2020/12/30 15:34:32;;;;;;;11.60;3.10;;;;;;;;;;12888430;23;20175;-56
2020/12/30 15:39:34;;;;;;;10.23;3.70;;;;;;;;;;12885801;23;20175;-58
2020/12/30 15:44:36;;;;;;;10.60;3.03;;;;;;;;;;12887643;23;20546;-58
2020/12/30 15:49:39;;;;;;;9.27;2.70;;;;;;;;;;12885154;23;20179;-57
2020/12/30 15:54:41;;;;;;;8.57;2.70;;;;;;;;;;12888310;23;20182;-58
2020/12/30 15:59:43;;;;;;;10.60;2.97;;;;;;;;;;12887930;23;20175;-58
2020/12/30 16:04:46;;;;;;;7.30;2.60;;;;;;;;;;12884796;23;20217;-56
2020/12/30 16:09:47;;;;;;;9.43;2.40;;;;;;;;;;12886482;23;20179;-57
2020/12/30 16:14:49;;;;;;;7.47;2.83;;;;;;;;;;12885480;23;20834;-54
2020/12/30 16:19:52;;;;;;;7.90;2.70;;;;;;;;;;12888576;23;20175;-56
2020/12/30 16:24:54;;;;;;;6.70;2.50;;;;;;;;;;12904605;23;20209;-56
2020/12/30 16:29:55;;;;;;;8.80;2.80;;;;;;;;;;12880467;23;20211;-56
2020/12/30 16:34:59;;;;;;;6.57;2.60;;;;;;;;;;12878664;23;20186;-52
2020/12/30 16:40:01;;;;;;;7.67;2.50;;;;;;;;;;12878561;23;20287;-56
2020/12/30 16:45:04;;;;;;;7.87;2.40;;;;;;;;;;12877004;23;20453;-57
2020/12/30 16:50:07;;;;;;;7.30;2.63;;;;;;;;;;12900474;23;20274;-53
2020/12/30 16:55:11;;;;;;;9.70;2.80;;;;;;;;;;12877890;23;20183;-55
2020/12/30 17:00:12;;;;;;;4.70;2.70;;;;;;;;;;12880705;23;20921;-54
2020/12/30 17:05:15;;;;;;;10.10;2.97;;;;;;;;;;12875751;23;20283;-57
2020/12/30 17:10:17;;;;;;;8.83;2.73;;;;;;;;;;12878911;23;20181;-57
2020/12/30 17:15:18;;;;;;;7.80;2.83;;;;;;;;;;12864077;23;20506;-57
2020/12/30 17:20:21;;;;;;;7.00;2.50;;;;;;;;;;12874988;23;20175;-56
2020/12/30 17:25:22;;;;;;;8.83;3.03;;;;;;;;;;12873628;23;20534;-55
2020/12/30 17:30:24;;;;;;;12.37;3.70;;;;;;;;;;12879376;23;20214;-56
2020/12/30 17:35:27;;;;;;;9.33;3.73;;;;;;;;;;12875701;23;20190;-55
2020/12/30 17:40:28;;;;;;;9.20;3.60;;;;;;;;;;12878417;23;20186;-56
2020/12/30 17:45:30;;;;;;;10.00;3.57;;;;;;;;;;12874091;23;20211;-54
2020/12/30 17:50:33;;;;;;;7.70;3.63;;;;;;;;;;12878737;23;20431;-54
2020/12/30 17:55:35;;;;;;;14.37;4.50;;;;;;;;;;12878917;23;20708;-56
2020/12/30 18:00:37;;;;;;;8.70;3.80;;;;;;;;;;12878742;23;20186;-56
2020/12/30 18:05:39;;;;;;;12.07;4.13;;;;;;;;;;12876784;23;20210;-56
2020/12/30 18:10:41;;;;;;;15.67;4.37;;;;;;;;;;12877313;23;20651;-56
2020/12/30 18:15:43;;;;;;;8.50;3.53;;;;;;;;;;12878059;23;20178;-56
2020/12/30 18:20:46;;;;;;;6.97;3.67;;;;;;;;;;12872543;23;20252;-53
2020/12/30 18:25:47;;;;;;;15.03;4.50;;;;;;;;;;12880619;23;20210;-56
2020/12/30 18:30:49;;;;;;;13.07;4.40;;;;;;;;;;12874295;23;20202;-54
2020/12/30 18:35:52;;;;;;;8.83;4.13;;;;;;;;;;12877152;23;20171;-55
2020/12/30 18:40:53;;;;;;;7.63;4.40;;;;;;;;;;12875634;23;20190;-57
2020/12/30 18:45:55;;;;;;;10.53;4.90;;;;;;;;;;12876143;23;20660;-54
2020/12/30 18:50:58;;;;;;;12.83;5.27;;;;;;;;;;12873328;23;20190;-54
2020/12/30 18:56:00;;;;;;;15.13;5.47;;;;;;;;;;12875129;23;20570;-54
2020/12/30 19:01:02;;;;;;;9.97;5.23;;;;;;;;;;12877693;23;20179;-53
2020/12/30 19:06:05;;;;;;;16.30;6.37;;;;;;;;;;12876114;23;20637;-55
2020/12/30 19:11:11;;;;;;;17.67;6.43;;;;;;;;;;12877122;23;20177;-54
2020/12/30 19:16:13;;;;;;;20.60;7.60;;;;;;;;;;12879749;23;20179;-56
2020/12/30 19:21:17;;;;;;;16.37;7.80;;;;;;;;;;12878181;23;20178;-53
2020/12/30 19:26:19;;;;;;;19.10;7.83;;;;;;;;;;12881079;23;20199;-56
2020/12/30 19:31:21;;;;;;;18.47;8.13;;;;;;;;;;12879338;23;20211;-54
2020/12/30 19:36:24;;;;;;;23.70;8.70;;;;;;;;;;12880909;23;20218;-55
2020/12/30 19:41:26;;;;;;;20.30;9.97;;;;;;;;;;12880840;23;20228;-57
2020/12/30 19:46:27;;;;;;;16.83;9.30;;;;;;;;;;12881246;23;20211;-53
2020/12/30 19:51:30;;;;;;;27.43;11.17;;;;;;;;;;12873274;23;20623;-55
2020/12/30 19:56:32;;;;;;;25.80;12.40;;;;;;;;;;12882254;23;20179;-55
2020/12/30 20:01:34;;;;;;;26.63;13.17;;;;;;;;;;12877500;23;20207;-54
2020/12/30 20:06:36;;;;;;;29.90;14.70;;;;;;;;;;12877295;23;20211;-55
2020/12/30 20:11:38;;;;;;;27.43;14.83;;;;;;;;;;12878313;23;20720;-55
2020/12/30 20:16:44;;;;;;;34.33;16.33;;;;;;;;;;12878765;23;20636;-58
2020/12/30 20:21:47;;;;;;;35.67;18.20;;;;;;;;;;12878727;23;20175;-55
2020/12/30 20:26:51;;;;;;;38.80;19.83;;;;;;;;;;12900252;23;20220;-52
2020/12/30 20:31:52;;;;;;;36.87;19.40;;;;;;;;;;12879244;23;20613;-55
2020/12/30 20:36:55;;;;;;;40.20;19.17;;;;;;;;;;12879371;23;20200;-54
2020/12/30 20:41:57;;;;;;;40.90;20.73;;;;;;;;;;12880410;23;20179;-55
2020/12/30 20:46:58;;;;;;;41.37;20.37;;;;;;;;;;12878025;23;20211;-53
2020/12/30 20:52:01;;;;;;;39.07;20.47;;;;;;;;;;12878030;23;20175;-55
2020/12/30 20:57:03;;;;;;;42.37;21.63;;;;;;;;;;12880293;23;20183;-57
2020/12/30 21:02:05;;;;;;;37.40;19.17;;;;;;;;;;12881945;23;20311;-54
2020/12/30 21:07:07;;;;;;;41.57;19.70;;;;;;;;;;12876713;23;20210;-56
2020/12/30 21:12:09;;;;;;;38.93;19.83;;;;;;;;;;12879004;23;20182;-58
2020/12/30 21:17:11;;;;;;;37.73;19.13;;;;;;;;;;12876423;23;20187;-54
2020/12/30 21:22:13;;;;;;;33.53;17.40;;;;;;;;;;12877569;23;20181;-53
2020/12/30 21:27:15;;;;;;;33.10;16.70;;;;;;;;;;12876121;23;20206;-53
2020/12/30 21:32:17;;;;;;;32.20;16.20;;;;;;;;;;12876194;23;20516;-62
2020/12/30 21:37:20;;;;;;;28.87;15.63;;;;;;;;;;12876573;23;20179;-55
2020/12/30 21:42:24;;;;;;;30.97;15.13;;;;;;;;;;12880207;23;20257;-56
2020/12/30 21:47:26;;;;;;;31.17;14.47;;;;;;;;;;12876574;23;20773;-56
2020/12/30 21:52:29;;;;;;;28.80;15.30;;;;;;;;;;12876190;23;20175;-54
2020/12/30 21:57:31;;;;;;;25.60;13.93;;;;;;;;;;12894488;23;20174;-55
2020/12/30 22:02:32;;;;;;;26.83;14.37;;;;;;;;;;12879132;23;20195;-54
2020/12/30 22:07:35;;;;;;;30.37;13.67;;;;;;;;;;12883457;23;20213;-55
2020/12/30 22:12:36;;;;;;;23.47;13.43;;;;;;;;;;12883828;23;20186;-51
2020/12/30 22:17:38;;;;;;;27.70;13.20;;;;;;;;;;12882164;23;20523;-55
2020/12/30 22:22:40;;;;;;;25.43;12.70;;;;;;;;;;12881930;23;20179;-56
2020/12/30 22:27:42;;;;;;;27.70;13.87;;;;;;;;;;12882967;23;20215;-55
2020/12/30 22:32:44;;;;;;;26.37;12.53;;;;;;;;;;12905672;23;20171;-55
2020/12/30 22:37:47;;;;;;;26.57;13.40;;;;;;;;;;12882353;23;20250;-55
2020/12/30 22:42:48;;;;;;;22.63;12.93;;;;;;;;;;12884473;23;20171;-52
2020/12/30 22:47:50;;;;;;;24.40;13.60;;;;;;;;;;12887836;23;20207;-56
2020/12/30 22:52:53;;;;;;;26.33;13.57;;;;;;;;;;12885859;23;20185;-53
2020/12/30 22:57:54;;;;;;;27.13;13.07;;;;;;;;;;12887388;23;20190;-54
2020/12/30 23:02:56;;;;;;;19.20;11.07;;;;;;;;;;12887145;23;20195;-54
2020/12/30 23:08:00;;;;;;;25.73;10.07;;;;;;;;;;12888146;23;20203;-54
2020/12/30 23:13:02;;;;;;;14.70;7.50;;;;;;;;;;12889586;23;20194;-56
2020/12/30 23:18:05;;;;;;;14.63;7.83;;;;;;;;;;12887983;23;20171;-56
2020/12/30 23:23:08;;;;;;;15.83;7.30;;;;;;;;;;12885258;23;20521;-55
2020/12/30 23:28:10;;;;;;;14.83;8.07;;;;;;;;;;12887273;23;20211;-55
2020/12/30 23:33:12;;;;;;;11.43;6.60;;;;;;;;;;12887707;23;20171;-53
2020/12/30 23:38:14;;;;;;;14.17;7.67;;;;;;;;;;12886500;23;20175;-55
2020/12/30 23:43:16;;;;;;;10.20;6.73;;;;;;;;;;12887236;23;20176;-57
2020/12/30 23:48:18;;;;;;;13.43;6.67;;;;;;;;;;12888214;23;20206;-54
2020/12/30 23:53:21;;;;;;;11.07;6.73;;;;;;;;;;12884210;23;20575;-55
2020/12/30 23:58:23;;;;;;;12.40;6.93;;;;;;;;;;12889291;23;20182;-56
